Time;durP1;ratioP1;P1;durP2;ratioP2;P2;SDS_P1;SDS_P2;PMS_P1;PMS_P2;Temp;Humidity;BMP_temperature;BMP_pressure;BME280_temperature;BME280_humidity;BME280_pressure;Samples;Min_cycle;Max_cycle;Signal;HPM_P1;HPM_P2
2023/03/21 12:06:46;;;;;;;34.10;24.00;;;;;;;14.35;100.00;99219.04;103601;1304;545367;-67
2023/03/21 12:09:21;;;;;;;27.00;21.80;;;;;;;14.41;100.00;99222.25;106509;1288;22666;-67
2023/03/21 12:11:50;;;;;;;29.30;22.10;;;;;;;14.52;100.00;99226.34;107188;1280;22538;-67
2023/03/21 12:14:22;;;;;;;31.30;24.50;;;;;;;14.63;100.00;99221.91;107279;1279;23399;-67
2023/03/21 12:17:14;;;;;;;29.90;24.50;;;;;;;14.74;100.00;99222.93;107248;1279;22643;-67
2023/03/21 12:19:57;;;;;;;40.30;28.50;;;;;;;14.91;100.00;99220.81;107063;1276;398967;-67
2023/03/21 12:22:31;;;;;;;29.30;23.30;;;;;;;15.05;100.00;99218.27;107348;1277;22560;-67
2023/03/21 12:25:28;;;;;;;30.30;21.70;;;;;;;15.08;100.00;99214.27;107217;1273;22615;-67
2023/03/21 12:28:11;;;;;;;39.40;27.90;;;;;;;15.06;100.00;99210.09;107447;1276;24210;-67
2023/03/21 12:30:47;;;;;;;33.30;23.40;;;;;;;15.13;100.00;99208.35;107458;1277;25233;-67
2023/03/21 12:33:44;;;;;;;36.90;27.70;;;;;;;15.25;100.00;99204.64;107230;1276;26359;-67
2023/03/21 12:36:18;;;;;;;38.70;25.60;;;;;;;15.36;100.00;99204.63;107419;1270;25346;-67
2023/03/21 12:39:09;;;;;;;31.20;24.00;;;;;;;15.43;100.00;99204.54;110282;1272;22303;-67
2023/03/21 12:41:43;;;;;;;39.80;30.30;;;;;;;15.53;100.00;99200.36;110226;1276;22220;-68
2023/03/21 12:44:12;;;;;;;36.80;28.10;;;;;;;15.60;100.00;99196.37;110202;1276;22205;-67
2023/03/21 12:46:54;;;;;;;38.20;30.00;;;;;;;15.70;100.00;99194.92;110186;1277;22293;-66
2023/03/21 12:49:42;;;;;;;36.60;27.50;;;;;;;15.75;100.00;99192.19;110226;1276;22439;-66
2023/03/21 12:52:12;;;;;;;31.00;25.60;;;;;;;15.78;100.00;99189.42;110158;1278;23072;-66
2023/03/21 12:54:56;;;;;;;30.40;23.50;;;;;;;15.79;100.00;99192.63;109598;1277;22550;-65
2023/03/21 12:57:27;;;;;;;28.80;22.90;;;;;;;15.81;100.00;99189.02;107534;1270;25346;-66
2023/03/21 12:59:55;;;;;;;33.90;24.40;;;;;;;15.80;100.00;99183.48;107638;1276;25475;-67
2023/03/21 13:02:30;;;;;;;31.80;22.90;;;;;;;15.78;100.00;99189.75;107443;1277;24452;-67
2023/03/21 13:05:19;;;;;;;27.00;21.40;;;;;;;15.74;100.00;99187.19;107230;1277;25322;-67
2023/03/21 13:07:51;;;;;;;30.10;24.00;;;;;;;15.63;100.00;99185.86;107164;1278;25328;-67
2023/03/21 13:10:20;;;;;;;29.90;24.60;;;;;;;15.61;100.00;99188.99;107288;1278;22523;-67
2023/03/21 13:12:52;;;;;;;29.50;24.30;;;;;;;15.63;100.00;99189.95;107386;1278;23474;-68
2023/03/21 13:15:31;;;;;;;29.40;22.60;;;;;;;15.65;100.00;99185.83;107442;1277;25392;-67
2023/03/21 13:18:11;;;;;;;27.80;23.10;;;;;;;15.65;100.00;99184.04;107197;1277;25397;-67
2023/03/21 13:20:53;;;;;;;30.40;23.70;;;;;;;15.64;100.00;99185.18;107525;1276;25312;-68
2023/03/21 13:23:31;;;;;;;27.90;22.50;;;;;;;15.65;100.00;99178.28;107539;1275;26535;-67
2023/03/21 13:26:11;;;;;;;28.80;22.10;;;;;;;15.68;100.00;99180.39;107649;1275;25315;-67
2023/03/21 13:28:40;;;;;;;28.70;23.90;;;;;;;15.69;100.00;99177.85;108029;1272;22566;-67
2023/03/21 13:31:20;;;;;;;30.40;24.00;;;;;;;15.69;100.00;99177.23;107348;1274;23038;-67
2023/03/21 13:33:49;;;;;;;28.80;24.00;;;;;;;15.74;100.00;99176.68;107393;1276;25534;-67
2023/03/21 13:36:22;;;;;;;28.50;23.10;;;;;;;15.76;100.00;99178.83;107547;1270;22521;-67
2023/03/21 13:38:51;;;;;;;45.80;33.10;;;;;;;15.73;100.00;99174.91;107559;1272;24236;-67
2023/03/21 13:41:24;;;;;;;55.80;40.80;;;;;;;15.72;100.00;99174.55;107455;1275;24314;-67
2023/03/21 13:44:03;;;;;;;154.70;99.10;;;;;;;15.73;100.00;99175.37;107322;1275;25353;-67
2023/03/21 13:46:43;;;;;;;70.30;48.30;;;;;;;15.72;100.00;99179.02;107565;1274;23224;-67
2023/03/21 13:49:31;;;;;;;28.40;24.60;;;;;;;15.69;100.00;99180.52;110389;1274;22355;-67
2023/03/21 13:52:00;;;;;;;32.60;25.30;;;;;;;15.65;100.00;99178.34;110410;1276;22208;-67
2023/03/21 13:54:33;;;;;;;30.10;25.20;;;;;;;15.62;100.00;99185.12;107561;1276;22471;-67
2023/03/21 13:57:04;;;;;;;32.50;26.90;;;;;;;15.54;100.00;99186.83;107680;1275;23557;-67
2023/03/21 13:59:42;;;;;;;36.50;28.30;;;;;;;15.42;100.00;99187.27;107433;1274;22530;-67
2023/03/21 14:02:10;;;;;;;43.10;27.50;;;;;;;15.31;100.00;99190.05;107430;1276;24325;-67
2023/03/21 14:04:39;;;;;;;46.20;32.20;;;;;;;15.18;100.00;99190.98;107786;1269;22520;-68
2023/03/21 14:07:33;;;;;;;52.50;41.30;;;;;;;15.07;100.00;99199.70;107762;1275;26496;-67
2023/03/21 14:10:04;;;;;;;50.80;37.00;;;;;;;14.99;100.00;99202.77;107631;1275;23236;-67
2023/03/21 14:12:37;;;;;;;44.50;34.10;;;;;;;14.94;100.00;99209.24;108114;1275;23969;-67
2023/03/21 14:15:17;;;;;;;45.20;31.50;;;;;;;14.91;100.00;99212.21;110401;1276;22191;-68
2023/03/21 14:17:51;;;;;;;34.40;26.40;;;;;;;14.86;100.00;99216.13;109809;1276;23715;-67
2023/03/21 14:20:24;;;;;;;30.70;23.30;;;;;;;14.77;100.00;99220.69;107537;1276;22516;-67
2023/03/21 14:22:52;;;;;;;32.80;26.70;;;;;;;14.64;100.00;99223.54;107570;1275;25315;-67
2023/03/21 14:25:21;;;;;;;33.80;26.40;;;;;;;14.43;100.00;99231.09;107563;1275;22958;-67
2023/03/21 14:27:55;;;;;;;34.90;28.20;;;;;;;14.22;100.00;99236.25;108013;1275;25325;-67
2023/03/21 14:30:26;;;;;;;36.10;27.80;;;;;;;13.92;100.00;99245.92;110423;1275;22423;-68
2023/03/21 14:33:24;;;;;;;34.80;29.50;;;;;;;13.56;100.00;99256.54;110313;1276;22222;-68
2023/03/21 14:35:55;;;;;;;33.10;26.70;;;;;;;13.16;100.00;99268.85;107392;1276;25268;-68
2023/03/21 14:38:32;;;;;;;36.70;27.90;;;;;;;12.92;100.00;99277.72;107513;1276;22530;-68
2023/03/21 14:41:03;;;;;;;38.80;29.40;;;;;;;12.66;100.00;99291.27;107483;1270;23287;-67
2023/03/21 14:43:37;;;;;;;41.60;31.80;;;;;;;12.37;100.00;99304.85;107585;1274;22667;-67
2023/03/21 14:46:10;;;;;;;40.70;29.50;;;;;;;12.14;100.00;99313.46;107398;1274;25459;-68
2023/03/21 14:48:39;;;;;;;46.40;34.20;;;;;;;11.96;100.00;99320.77;107528;1274;23264;-67
2023/03/21 14:51:11;;;;;;;49.00;35.50;;;;;;;11.77;100.00;99329.91;107628;1274;23555;-67
2023/03/21 14:53:40;;;;;;;34.60;27.70;;;;;;;11.54;100.00;99343.28;107377;1275;22914;-67
2023/03/21 14:56:19;;;;;;;37.20;29.80;;;;;;;11.34;100.00;99348.25;107448;1276;25971;-66
2023/03/21 14:58:51;;;;;;;49.60;37.80;;;;;;;11.16;100.00;99355.92;107614;1276;25325;-68
